createdAt,value
2018-06-27T00:00:00.904Z,99.99
2018-06-27T00:01:00.889Z,99.99
2018-06-27T00:02:00.877Z,99.99
2018-06-27T00:03:00.850Z,99.99
2018-06-27T00:04:00.835Z,99.99
2018-06-27T00:05:00.875Z,99.99
2018-06-27T00:06:00.812Z,99.99
2018-06-27T00:07:00.787Z,99.99
2018-06-27T00:08:00.769Z,99.99
2018-06-27T00:09:00.750Z,99.99
2018-06-27T00:10:00.740Z,99.99
2018-06-27T00:11:00.720Z,99.99
2018-06-27T00:12:00.714Z,99.99
2018-06-27T00:13:00.684Z,99.99
2018-06-27T00:14:00.668Z,99.99
2018-06-27T00:15:00.652Z,99.99
2018-06-27T00:16:00.636Z,99.99
2018-06-27T00:17:00.623Z,99.99
2018-06-27T00:18:00.606Z,99.99
2018-06-27T00:19:00.588Z,99.99
2018-06-27T00:20:00.574Z,99.99
2018-06-27T00:21:00.556Z,99.99
2018-06-27T00:22:00.537Z,99.99
2018-06-27T00:23:00.521Z,99.99
2018-06-27T00:24:00.559Z,99.99
2018-06-27T00:25:00.490Z,99.99
2018-06-27T00:26:00.477Z,99.99
2018-06-27T00:27:00.459Z,99.99
2018-06-27T00:28:00.438Z,99.99
2018-06-27T00:29:00.422Z,99.99
2018-06-27T00:30:00.406Z,99.99
2018-06-27T00:31:00.390Z,99.99
2018-06-27T00:32:00.377Z,99.99
2018-06-27T00:33:00.359Z,99.99
2018-06-27T00:34:00.342Z,99.99
2018-06-27T00:35:00.327Z,99.99
2018-06-27T00:36:00.311Z,99.99
2018-06-27T00:37:00.296Z,99.99
2018-06-27T00:38:00.280Z,99.99
2018-06-27T00:39:00.261Z,99.99
2018-06-27T00:40:00.240Z,99.99
2018-06-27T00:41:00.228Z,99.99
2018-06-27T00:42:00.211Z,99.99
2018-06-27T00:43:00.191Z,99.99
2018-06-27T00:44:00.177Z,99.99
2018-06-27T00:45:00.159Z,99.99
2018-06-27T00:46:00.147Z,99.99
2018-06-27T00:47:00.132Z,99.99
2018-06-27T00:48:00.200Z,99.99
2018-06-27T00:49:00.097Z,99.99
2018-06-27T00:50:00.084Z,99.99
2018-06-27T00:51:00.161Z,99.99
2018-06-27T00:52:00.060Z,99.99
2018-06-27T00:53:00.027Z,99.99
2018-06-27T00:54:00.014Z,99.99
2018-06-27T00:54:59.994Z,99.99
2018-06-27T00:55:59.987Z,99.99
2018-06-27T00:56:59.960Z,99.99
2018-06-27T00:57:59.948Z,99.66
2018-06-27T00:58:59.931Z,99.04
2018-06-27T00:59:59.912Z,99.13
2018-06-27T01:00:59.895Z,98.56
2018-06-27T01:01:59.880Z,99.04
2018-06-27T01:02:59.860Z,99.23
2018-06-27T01:03:59.844Z,99.61
2018-06-27T01:04:59.827Z,99.71
2018-06-27T01:05:59.820Z,99.04
2018-06-27T01:06:59.902Z,98.85
2018-06-27T01:07:59.780Z,98.27
2018-06-27T01:08:59.768Z,98.18
2018-06-27T01:09:59.813Z,98.85
2018-06-27T01:10:59.729Z,99.71
2018-06-27T01:11:59.712Z,99.61
2018-06-27T01:12:59.697Z,99.42
2018-06-27T01:13:59.681Z,99.99
2018-06-27T01:14:59.669Z,99.99
2018-06-27T01:15:59.648Z,99.99
2018-06-27T01:16:59.629Z,99.99
2018-06-27T01:17:59.611Z,98.37
2018-06-27T01:18:59.598Z,99.66
2018-06-27T01:19:59.640Z,99.66
2018-06-27T01:20:59.564Z,99.95
2018-06-27T01:21:59.549Z,99.85
2018-06-27T01:22:59.528Z,99.99
2018-06-27T01:23:59.509Z,99.99
2018-06-27T01:24:59.501Z,99.99
2018-06-27T01:25:59.477Z,99.95
2018-06-27T01:26:59.461Z,99.99
2018-06-27T01:27:59.449Z,99.66
2018-06-27T01:28:59.428Z,99.08
2018-06-27T01:29:59.414Z,99.51
2018-06-27T01:30:59.403Z,99.99
2018-06-27T01:31:59.381Z,99.99
2018-06-27T01:32:59.367Z,99.99
2018-06-27T01:33:59.351Z,99.99
2018-06-27T01:34:59.328Z,99.99
2018-06-27T01:35:59.312Z,99.99
2018-06-27T01:36:59.384Z,99.95
2018-06-27T01:37:59.283Z,99.56
2018-06-27T01:38:59.261Z,99.56
2018-06-27T01:39:59.249Z,98.32
2018-06-27T01:40:59.232Z,96.98
2018-06-27T01:41:59.216Z,98.13
2018-06-27T01:42:59.195Z,98.85
2018-06-27T01:43:59.174Z,99.60
2018-06-27T01:44:59.169Z,99.99
2018-06-27T01:45:59.144Z,99.99
2018-06-27T01:46:59.128Z,99.99
2018-06-27T01:47:59.110Z,99.99
2018-06-27T01:48:59.095Z,99.99
2018-06-27T01:49:59.074Z,99.99
2018-06-27T01:50:59.060Z,99.99
2018-06-27T01:51:59.043Z,99.99
2018-06-27T01:52:59.031Z,99.99
2018-06-27T01:53:59.009Z,99.99
2018-06-27T01:54:58.992Z,99.99
2018-06-27T01:55:59.128Z,99.99
2018-06-27T01:56:58.959Z,99.99
2018-06-27T01:57:58.938Z,99.99
2018-06-27T01:58:58.926Z,99.99
2018-06-27T01:59:58.906Z,99.99
2018-06-27T02:00:58.890Z,99.99
2018-06-27T02:01:58.876Z,99.99
2018-06-27T02:02:58.861Z,99.99
2018-06-27T02:03:58.841Z,99.99
2018-06-27T02:04:58.827Z,99.99
2018-06-27T02:05:58.812Z,99.99
2018-06-27T02:06:58.790Z,99.99
2018-06-27T02:07:58.778Z,99.99
2018-06-27T02:08:58.757Z,99.99
2018-06-27T02:09:58.740Z,99.99
2018-06-27T02:10:58.724Z,99.99
2018-06-27T02:11:58.709Z,99.99
2018-06-27T02:12:58.690Z,99.99
2018-06-27T02:13:58.679Z,99.99
2018-06-27T02:14:58.656Z,99.99
2018-06-27T02:15:58.641Z,99.99
2018-06-27T02:16:58.622Z,99.99
2018-06-27T02:17:58.606Z,99.99
2018-06-27T02:18:58.614Z,99.99
2018-06-27T02:19:58.588Z,99.99
2018-06-27T02:20:58.559Z,99.99
2018-06-27T02:21:58.538Z,99.99
2018-06-27T02:22:58.623Z,99.99
2018-06-27T02:23:58.502Z,99.99
2018-06-27T02:24:58.489Z,99.99
2018-06-27T02:25:58.479Z,99.99
2018-06-27T02:26:58.453Z,99.99
2018-06-27T02:27:58.445Z,99.99
2018-06-27T02:28:58.424Z,99.99
2018-06-27T02:29:58.402Z,99.99
2018-06-27T02:30:58.387Z,99.99
2018-06-27T02:31:58.368Z,99.99
2018-06-27T02:32:58.352Z,99.99
2018-06-27T02:33:58.336Z,99.99
2018-06-27T02:34:58.317Z,99.99
2018-06-27T02:35:58.300Z,99.99
2018-06-27T02:36:58.284Z,99.99
2018-06-27T02:37:58.287Z,99.99
2018-06-27T02:38:58.258Z,99.99
2018-06-27T02:39:58.233Z,99.99
2018-06-27T02:40:58.216Z,99.99
2018-06-27T02:41:58.264Z,99.99
2018-06-27T02:42:58.184Z,99.99
2018-06-27T02:43:58.169Z,99.99
2018-06-27T02:44:58.156Z,99.99
2018-06-27T02:45:58.131Z,99.99
2018-06-27T02:46:58.120Z,99.99
2018-06-27T02:47:58.102Z,99.99
2018-06-27T02:48:58.085Z,99.99
2018-06-27T02:49:58.068Z,99.99
2018-06-27T02:50:58.059Z,99.99
2018-06-27T02:51:58.031Z,99.99
2018-06-27T02:52:58.013Z,99.99
2018-06-27T02:53:58.000Z,99.99
2018-06-27T02:54:57.978Z,99.99
2018-06-27T02:55:57.969Z,99.99
2018-06-27T02:56:57.947Z,99.99
2018-06-27T02:57:57.933Z,99.99
2018-06-27T02:58:57.914Z,99.99
2018-06-27T02:59:57.893Z,99.99
2018-06-27T03:00:57.940Z,99.99
2018-06-27T03:01:57.865Z,99.99
2018-06-27T03:02:57.846Z,99.99
2018-06-27T03:03:57.826Z,99.99
2018-06-27T03:04:57.809Z,99.99
2018-06-27T03:05:57.797Z,99.99
2018-06-27T03:06:57.781Z,99.99
2018-06-27T03:07:57.758Z,99.99
2018-06-27T03:08:57.750Z,99.99
2018-06-27T03:09:57.726Z,99.99
2018-06-27T03:10:57.710Z,99.99
2018-06-27T03:11:57.694Z,99.99
2018-06-27T03:12:57.677Z,99.99
2018-06-27T03:13:57.660Z,99.99
2018-06-27T03:14:57.647Z,99.99
2018-06-27T03:15:57.629Z,99.99
2018-06-27T03:16:57.618Z,99.99
2018-06-27T03:17:57.591Z,99.99
2018-06-27T03:18:57.577Z,99.99
2018-06-27T03:19:57.565Z,99.99
2018-06-27T03:20:57.546Z,99.99
2018-06-27T03:21:57.527Z,99.99
2018-06-27T03:22:57.506Z,99.99
2018-06-27T03:23:57.491Z,99.99
2018-06-27T03:24:57.481Z,99.99
2018-06-27T03:25:57.470Z,99.99
2018-06-27T03:26:57.442Z,99.99
2018-06-27T03:27:57.529Z,99.99
2018-06-27T03:28:57.404Z,99.99
2018-06-27T03:29:57.391Z,99.99
2018-06-27T03:30:57.378Z,99.99
2018-06-27T03:31:57.354Z,99.99
2018-06-27T03:32:57.337Z,99.99
2018-06-27T03:33:57.321Z,99.99
2018-06-27T03:34:57.305Z,99.99
2018-06-27T03:35:57.291Z,99.99
2018-06-27T03:36:57.281Z,99.99
2018-06-27T03:37:57.257Z,99.99
2018-06-27T03:38:57.241Z,99.99
2018-06-27T03:39:57.218Z,99.99
2018-06-27T03:40:57.202Z,99.99
2018-06-27T03:41:57.186Z,99.99
2018-06-27T03:42:57.170Z,99.99
2018-06-27T03:43:57.173Z,99.99
2018-06-27T03:44:57.136Z,99.99
2018-06-27T03:45:57.114Z,99.99
2018-06-27T03:46:57.106Z,99.99
2018-06-27T03:47:57.081Z,99.99
2018-06-27T03:48:57.067Z,99.99
2018-06-27T03:49:57.049Z,99.99
2018-06-27T03:50:57.030Z,99.99
2018-06-27T03:51:57.019Z,99.99
2018-06-27T03:52:57.008Z,99.99
2018-06-27T03:53:56.989Z,99.99
2018-06-27T03:54:56.968Z,99.99
2018-06-27T03:55:56.949Z,99.99
2018-06-27T03:56:56.931Z,99.99
2018-06-27T03:57:56.920Z,99.99
2018-06-27T03:58:56.938Z,99.99
2018-06-27T03:59:56.882Z,99.99
2018-06-27T04:00:56.863Z,99.99
2018-06-27T04:01:56.849Z,99.99
2018-06-27T04:02:56.830Z,99.99
2018-06-27T04:03:56.810Z,99.99
2018-06-27T04:04:56.798Z,99.99
2018-06-27T04:05:56.781Z,99.99
2018-06-27T04:06:56.762Z,99.99
2018-06-27T04:07:56.742Z,99.99
2018-06-27T04:08:56.726Z,99.99
2018-06-27T04:09:56.717Z,99.99
2018-06-27T04:10:56.733Z,99.99
2018-06-27T04:11:56.678Z,99.99
2018-06-27T04:12:56.734Z,99.99
2018-06-27T04:13:56.656Z,99.99
2018-06-27T04:14:56.627Z,99.99
2018-06-27T04:15:56.610Z,99.99
2018-06-27T04:16:56.600Z,99.99
2018-06-27T04:17:56.579Z,99.99
2018-06-27T04:18:56.557Z,99.99
2018-06-27T04:19:56.540Z,99.99
2018-06-27T04:20:56.527Z,99.99
2018-06-27T04:21:56.510Z,99.99
2018-06-27T04:22:56.491Z,99.99
2018-06-27T04:23:56.475Z,99.99
2018-06-27T04:24:56.456Z,99.99
2018-06-27T04:25:56.438Z,99.99
2018-06-27T04:26:56.427Z,99.99
2018-06-27T04:27:56.409Z,99.99
2018-06-27T04:28:56.391Z,99.99
2018-06-27T04:29:56.402Z,99.99
2018-06-27T04:30:56.360Z,99.99
2018-06-27T04:31:56.346Z,99.99
2018-06-27T04:32:56.475Z,99.99
2018-06-27T04:33:56.304Z,99.99
2018-06-27T04:34:56.291Z,99.99
2018-06-27T04:35:56.451Z,99.99
2018-06-27T04:36:56.255Z,99.99
2018-06-27T04:37:56.241Z,99.99
2018-06-27T04:38:56.222Z,99.99
2018-06-27T04:39:56.211Z,99.99
2018-06-27T04:40:56.194Z,99.99
2018-06-27T04:41:56.180Z,99.99
2018-06-27T04:42:56.162Z,99.99
2018-06-27T04:43:56.137Z,99.99
2018-06-27T04:44:56.126Z,99.99
2018-06-27T04:45:56.108Z,99.99
2018-06-27T04:46:56.092Z,99.99
2018-06-27T04:47:56.071Z,99.99
2018-06-27T04:48:56.059Z,99.99
2018-06-27T04:49:56.041Z,99.99
2018-06-27T04:50:56.021Z,99.99
2018-06-27T04:51:56.004Z,99.99
2018-06-27T04:52:55.987Z,99.99
2018-06-27T04:53:55.971Z,99.99
2018-06-27T04:54:56.033Z,99.99
2018-06-27T04:55:55.940Z,99.99
2018-06-27T04:56:55.921Z,99.99
2018-06-27T04:57:55.904Z,99.99
2018-06-27T04:58:55.885Z,99.99
2018-06-27T04:59:55.926Z,99.99
2018-06-27T05:00:55.854Z,99.99
2018-06-27T05:01:55.843Z,99.99
2018-06-27T05:02:55.870Z,99.99
2018-06-27T05:03:55.804Z,99.99
2018-06-27T05:04:55.789Z,99.99
2018-06-27T05:05:55.775Z,99.99
2018-06-27T05:06:55.761Z,99.99
2018-06-27T05:07:55.740Z,99.99
2018-06-27T05:08:55.718Z,99.99
2018-06-27T05:09:55.710Z,99.99
2018-06-27T05:10:55.686Z,99.99
2018-06-27T05:11:55.671Z,99.99
2018-06-27T05:12:55.659Z,99.99
2018-06-27T05:13:55.638Z,99.99
2018-06-27T05:14:55.621Z,99.99
2018-06-27T05:15:55.657Z,99.99
2018-06-27T05:16:55.589Z,99.99
2018-06-27T05:17:55.567Z,99.99
2018-06-27T05:18:55.628Z,99.99
2018-06-27T05:19:55.543Z,99.99
2018-06-27T05:20:55.519Z,99.99
2018-06-27T05:21:55.555Z,99.99
2018-06-27T05:22:55.488Z,99.99
2018-06-27T05:23:55.471Z,99.99
2018-06-27T05:24:55.448Z,99.99
2018-06-27T05:25:55.448Z,99.99
2018-06-27T05:26:55.416Z,99.99
2018-06-27T05:27:55.401Z,99.99
2018-06-27T05:28:55.384Z,99.99
2018-06-27T05:29:55.368Z,99.99
2018-06-27T05:30:55.356Z,99.99
2018-06-27T05:31:55.337Z,99.99
2018-06-27T05:32:55.315Z,99.99
2018-06-27T05:33:55.346Z,99.99
2018-06-27T05:34:55.281Z,99.99
2018-06-27T05:35:55.265Z,99.99
2018-06-27T05:36:55.249Z,99.99
2018-06-27T05:37:55.238Z,99.99
2018-06-27T05:38:55.215Z,99.99
2018-06-27T05:39:55.201Z,99.99
2018-06-27T05:40:55.187Z,99.99
2018-06-27T05:41:55.171Z,99.99
2018-06-27T05:42:55.152Z,99.99
2018-06-27T05:43:55.133Z,99.99
2018-06-27T05:44:55.122Z,99.99
2018-06-27T05:45:55.213Z,99.99
2018-06-27T05:46:55.085Z,99.99
2018-06-27T05:47:55.066Z,99.99
2018-06-27T05:48:55.058Z,99.99
2018-06-27T05:49:55.044Z,99.99
2018-06-27T05:50:55.018Z,99.99
2018-06-27T05:51:55.003Z,99.99
2018-06-27T05:52:54.988Z,99.99
2018-06-27T05:53:54.965Z,99.99
2018-06-27T05:54:54.950Z,99.99
2018-06-27T05:55:54.935Z,99.99
2018-06-27T05:56:54.918Z,99.99
2018-06-27T05:57:54.902Z,99.99
2018-06-27T05:58:54.932Z,99.99
2018-06-27T05:59:54.869Z,99.99
2018-06-27T06:00:54.852Z,99.99
2018-06-27T06:01:54.832Z,99.99
2018-06-27T06:02:54.815Z,99.99
2018-06-27T06:03:54.799Z,99.99
2018-06-27T06:04:54.784Z,99.99
2018-06-27T06:05:54.769Z,99.99
2018-06-27T06:06:54.753Z,99.99
2018-06-27T06:07:54.736Z,99.99
2018-06-27T06:08:54.714Z,99.99
2018-06-27T06:09:54.698Z,99.99
2018-06-27T06:10:54.684Z,99.99
2018-06-27T06:11:54.662Z,99.99
2018-06-27T06:12:54.648Z,99.99
2018-06-27T06:13:54.630Z,99.99
2018-06-27T06:14:54.619Z,99.99
2018-06-27T06:15:54.600Z,99.99
2018-06-27T06:16:54.584Z,99.99
2018-06-27T06:17:54.570Z,99.99
2018-06-27T06:18:54.549Z,99.99
2018-06-27T06:19:54.552Z,99.99
2018-06-27T06:20:54.517Z,99.99
2018-06-27T06:21:54.504Z,99.99
2018-06-27T06:22:54.536Z,99.99
2018-06-27T06:23:54.470Z,99.99
2018-06-27T06:24:54.453Z,99.99
2018-06-27T06:25:54.443Z,99.99
2018-06-27T06:26:54.418Z,99.99
2018-06-27T06:27:54.401Z,99.99
2018-06-27T06:28:54.386Z,99.99
2018-06-27T06:29:54.369Z,99.99
2018-06-27T06:30:54.353Z,99.99
2018-06-27T06:31:54.494Z,99.99
2018-06-27T06:32:54.323Z,99.99
2018-06-27T06:33:54.304Z,99.99
2018-06-27T06:34:54.304Z,99.99
2018-06-27T06:35:54.270Z,99.99
2018-06-27T06:36:54.260Z,99.99
2018-06-27T06:37:54.234Z,99.99
2018-06-27T06:38:54.219Z,99.99
2018-06-27T06:39:54.203Z,99.99
2018-06-27T06:40:54.188Z,99.99
2018-06-27T06:41:54.171Z,99.99
2018-06-27T06:42:54.156Z,99.99
2018-06-27T06:43:54.141Z,99.99
2018-06-27T06:44:54.127Z,99.99
2018-06-27T06:45:54.107Z,99.99
2018-06-27T06:46:54.090Z,99.99
2018-06-27T06:47:54.077Z,99.99
2018-06-27T06:48:54.117Z,99.99
2018-06-27T06:49:54.039Z,99.99
2018-06-27T06:50:54.086Z,99.99
2018-06-27T06:51:54.007Z,99.99
2018-06-27T06:52:53.993Z,99.99
2018-06-27T06:53:53.974Z,99.99
2018-06-27T06:54:53.960Z,99.99
2018-06-27T06:55:53.945Z,99.99
2018-06-27T06:56:53.938Z,99.99
2018-06-27T06:57:53.910Z,99.99
2018-06-27T06:58:53.895Z,99.99
2018-06-27T06:59:53.877Z,99.99
2018-06-27T07:00:53.868Z,99.99
2018-06-27T07:01:53.847Z,99.99
2018-06-27T07:02:53.834Z,99.99
2018-06-27T07:03:53.811Z,99.99
2018-06-27T07:04:53.863Z,99.99
2018-06-27T07:05:53.781Z,99.99
2018-06-27T07:06:53.873Z,99.99
2018-06-27T07:07:53.752Z,99.99
2018-06-27T07:08:53.730Z,99.99
2018-06-27T07:09:53.723Z,99.99
2018-06-27T07:10:53.706Z,99.99
2018-06-27T07:11:53.689Z,99.99
2018-06-27T07:12:53.670Z,99.99
2018-06-27T07:13:53.650Z,99.99
2018-06-27T07:14:53.640Z,99.99
2018-06-27T07:15:53.621Z,99.99
2018-06-27T07:16:53.603Z,99.99
2018-06-27T07:17:53.629Z,99.99
2018-06-27T07:18:53.574Z,99.99
2018-06-27T07:19:53.559Z,99.99
2018-06-27T07:20:53.541Z,99.99
2018-06-27T07:21:53.530Z,99.99
2018-06-27T07:22:53.509Z,99.99
2018-06-27T07:23:53.493Z,99.99
2018-06-27T07:24:53.476Z,99.99
2018-06-27T07:25:53.462Z,99.99
2018-06-27T07:26:53.450Z,99.91
2018-06-27T07:27:53.434Z,99.24
2018-06-27T07:28:53.531Z,99.44
2018-06-27T07:29:53.398Z,98.67
2018-06-27T07:30:53.435Z,99.99
2018-06-27T07:31:53.370Z,99.82
2018-06-27T07:32:53.351Z,98.24
2018-06-27T07:33:53.338Z,98.24
2018-06-27T07:34:53.320Z,97.28
2018-06-27T07:35:53.345Z,97.56
2018-06-27T07:36:53.290Z,97.86
2018-06-27T07:37:53.271Z,98.72
2018-06-27T07:38:53.263Z,98.05
2018-06-27T07:39:53.249Z,96.75
2018-06-27T07:40:53.226Z,96.51
2018-06-27T07:41:53.210Z,96.80
2018-06-27T07:42:53.196Z,96.08
2018-06-27T07:43:53.179Z,96.37
2018-06-27T07:44:53.168Z,96.27
2018-06-27T07:45:53.149Z,96.66
2018-06-27T07:46:53.137Z,95.98
2018-06-27T07:47:53.116Z,97.33
2018-06-27T07:48:53.102Z,96.37
2018-06-27T07:49:53.150Z,97.04
2018-06-27T07:50:53.182Z,95.75
2018-06-27T07:51:53.054Z,96.03
2018-06-27T07:52:53.041Z,95.84
2018-06-27T07:53:53.027Z,94.69
2018-06-27T07:54:53.014Z,95.45
2018-06-27T07:55:53.002Z,95.75
2018-06-27T07:56:52.981Z,93.92
2018-06-27T07:57:52.967Z,94.40
2018-06-27T07:58:52.954Z,95.07
2018-06-27T07:59:52.939Z,94.59
2018-06-27T08:00:52.923Z,94.31
2018-06-27T08:01:52.903Z,94.06
2018-06-27T08:02:52.892Z,93.87
2018-06-27T08:03:52.873Z,93.77
2018-06-27T08:04:52.857Z,92.81
2018-06-27T08:05:52.952Z,92.72
2018-06-27T08:06:52.831Z,92.72
2018-06-27T08:07:52.821Z,92.33
2018-06-27T08:08:52.849Z,93.77
2018-06-27T08:09:52.785Z,92.76
2018-06-27T08:10:52.771Z,92.86
2018-06-27T08:11:52.757Z,92.76
2018-06-27T08:12:52.739Z,93.53
2018-06-27T08:13:52.728Z,92.09
2018-06-27T08:14:52.721Z,91.61
2018-06-27T08:15:52.699Z,91.80
2018-06-27T08:16:52.737Z,91.52
2018-06-27T08:17:52.802Z,91.32
2018-06-27T08:18:52.651Z,91.52
2018-06-27T08:19:52.637Z,91.61
2018-06-27T08:20:52.634Z,91.52
2018-06-27T08:21:52.609Z,90.84
2018-06-27T08:22:52.593Z,90.89
2018-06-27T08:23:52.578Z,91.08
2018-06-27T08:24:52.564Z,89.64
2018-06-27T08:25:52.577Z,89.92
2018-06-27T08:26:52.535Z,90.41
2018-06-27T08:27:52.527Z,90.41
2018-06-27T08:28:52.508Z,89.11
2018-06-27T08:29:52.500Z,90.21
2018-06-27T08:30:52.487Z,91.17
2018-06-27T08:31:52.467Z,90.79
2018-06-27T08:32:52.452Z,89.35
2018-06-27T08:33:52.442Z,88.57
2018-06-27T08:34:52.423Z,89.54
2018-06-27T08:35:52.403Z,88.73
2018-06-27T08:36:52.391Z,89.25
2018-06-27T08:37:52.382Z,88.77
2018-06-27T08:38:52.364Z,89.15
2018-06-27T08:39:52.348Z,90.41
2018-06-27T08:40:52.334Z,89.06
2018-06-27T08:41:52.320Z,88.96
2018-06-27T08:42:52.309Z,87.66
2018-06-27T08:43:52.292Z,87.95
2018-06-27T08:44:52.278Z,87.85
2018-06-27T08:45:52.269Z,86.99
2018-06-27T08:46:52.249Z,86.51
2018-06-27T08:47:52.235Z,85.93
2018-06-27T08:48:52.232Z,87.70
2018-06-27T08:49:52.240Z,86.16
2018-06-27T08:50:52.201Z,86.45
2018-06-27T08:51:52.185Z,85.97
2018-06-27T08:52:52.169Z,85.30
2018-06-27T08:53:52.164Z,85.10
2018-06-27T08:54:52.143Z,84.81
2018-06-27T08:55:52.138Z,86.26
2018-06-27T08:56:52.116Z,86.07
2018-06-27T08:57:52.098Z,86.65
2018-06-27T08:58:52.100Z,85.20
2018-06-27T08:59:52.076Z,84.91
2018-06-27T09:00:52.058Z,85.30
2018-06-27T09:01:52.174Z,85.10
2018-06-27T09:02:52.029Z,85.20
2018-06-27T09:03:52.027Z,84.95
2018-06-27T09:04:52.002Z,84.33
2018-06-27T09:05:51.986Z,85.30
2018-06-27T09:06:51.979Z,85.34
2018-06-27T09:07:51.962Z,83.89
2018-06-27T09:08:51.949Z,83.22
2018-06-27T09:09:51.931Z,84.66
2018-06-27T09:10:51.919Z,83.70
2018-06-27T09:11:51.906Z,83.22
2018-06-27T09:12:51.890Z,82.83
2018-06-27T09:13:51.882Z,82.54
2018-06-27T09:14:51.870Z,84.95
2018-06-27T09:15:51.850Z,83.94
2018-06-27T09:16:51.836Z,83.36
2018-06-27T09:17:51.824Z,83.36
2018-06-27T09:18:51.820Z,82.87
2018-06-27T09:19:51.799Z,81.24
2018-06-27T09:20:51.792Z,81.81
2018-06-27T09:21:51.770Z,82.01
2018-06-27T09:22:51.756Z,82.29
2018-06-27T09:23:51.740Z,82.62
2018-06-27T09:24:51.731Z,81.85
2018-06-27T09:25:51.721Z,81.09
2018-06-27T09:26:51.702Z,79.77
2018-06-27T09:27:51.694Z,80.89
2018-06-27T09:28:51.726Z,79.97
2018-06-27T09:29:51.668Z,80.31
2018-06-27T09:30:51.650Z,80.26
2018-06-27T09:31:51.646Z,79.83
2018-06-27T09:32:51.629Z,79.74
2018-06-27T09:33:51.615Z,79.64
2018-06-27T09:34:51.598Z,80.16
2018-06-27T09:35:51.590Z,80.93
2018-06-27T09:36:51.572Z,79.49
2018-06-27T09:37:51.561Z,79.77
2018-06-27T09:38:51.548Z,78.94
2018-06-27T09:39:51.541Z,78.61
2018-06-27T09:40:51.518Z,78.61
2018-06-27T09:41:51.546Z,78.81
2018-06-27T09:42:51.506Z,78.91
2018-06-27T09:43:51.480Z,79.00
2018-06-27T09:44:51.590Z,79.62
2018-06-27T09:45:51.455Z,77.50
2018-06-27T09:46:51.443Z,77.21
2018-06-27T09:47:51.437Z,76.53
2018-06-27T09:48:51.417Z,76.63
2018-06-27T09:49:51.407Z,77.50
2018-06-27T09:50:51.392Z,76.24
2018-06-27T09:51:51.384Z,75.47
2018-06-27T09:52:51.370Z,76.24
2018-06-27T09:53:51.356Z,76.15
2018-06-27T09:54:51.346Z,76.82
2018-06-27T09:55:51.338Z,76.67
2018-06-27T09:56:51.345Z,76.86
2018-06-27T09:57:51.316Z,75.60
2018-06-27T09:58:51.291Z,76.09
2018-06-27T09:59:51.282Z,76.47
2018-06-27T10:00:51.267Z,75.79
2018-06-27T10:01:51.255Z,76.28
2018-06-27T10:02:51.253Z,75.79
2018-06-27T10:03:51.227Z,74.83
2018-06-27T10:04:51.220Z,75.02
2018-06-27T10:05:51.209Z,75.31
2018-06-27T10:06:51.191Z,75.51
2018-06-27T10:07:51.179Z,75.12
2018-06-27T10:08:51.168Z,75.60
2018-06-27T10:09:51.157Z,73.09
2018-06-27T10:10:51.146Z,74.93
2018-06-27T10:11:51.128Z,73.19
2018-06-27T10:12:51.120Z,73.67
2018-06-27T10:13:51.107Z,74.31
2018-06-27T10:14:51.092Z,74.12
2018-06-27T10:15:51.081Z,74.35
2018-06-27T10:16:51.084Z,73.96
2018-06-27T10:17:51.068Z,74.16
2018-06-27T10:18:51.045Z,72.71
2018-06-27T10:19:51.032Z,73.52
2018-06-27T10:20:51.020Z,72.94
2018-06-27T10:21:51.004Z,72.64
2018-06-27T10:22:50.995Z,73.22
2018-06-27T10:23:50.983Z,72.55
2018-06-27T10:24:50.985Z,71.58
2018-06-27T10:25:50.957Z,70.81
2018-06-27T10:26:50.944Z,69.56
2018-06-27T10:27:50.930Z,69.49
2018-06-27T10:28:50.919Z,68.24
2018-06-27T10:29:50.907Z,66.98
2018-06-27T10:30:50.894Z,66.98
2018-06-27T10:31:50.881Z,67.36
2018-06-27T10:32:50.870Z,68.01
2018-06-27T10:33:50.862Z,68.78
2018-06-27T10:34:50.869Z,70.23
2018-06-27T10:35:50.900Z,69.59
2018-06-27T10:36:50.822Z,68.43
2018-06-27T10:37:50.887Z,68.04
2018-06-27T10:38:50.804Z,67.98
2018-06-27T10:39:50.790Z,68.46
2018-06-27T10:40:50.790Z,68.91
2018-06-27T10:41:50.769Z,70.46
2018-06-27T10:42:50.754Z,70.68
2018-06-27T10:43:50.743Z,68.62
2018-06-27T10:44:50.736Z,69.07
2018-06-27T10:45:50.720Z,69.74
2018-06-27T10:46:50.704Z,69.65
2018-06-27T10:47:50.692Z,71.00
2018-06-27T10:48:50.681Z,68.40
2018-06-27T10:49:50.671Z,67.24
2018-06-27T10:50:50.661Z,65.05
2018-06-27T10:51:50.659Z,65.63
2018-06-27T10:52:50.630Z,64.59
2018-06-27T10:53:50.628Z,65.37
2018-06-27T10:54:50.609Z,65.66
2018-06-27T10:55:50.600Z,65.95
2018-06-27T10:56:50.636Z,66.27
2018-06-27T10:57:50.589Z,63.66
2018-06-27T10:58:50.564Z,62.98
2018-06-27T10:59:50.552Z,64.34
2018-06-27T11:00:50.537Z,65.20
2018-06-27T11:01:50.576Z,64.34
2018-06-27T11:02:50.517Z,64.14
2018-06-27T11:03:50.510Z,63.14
2018-06-27T11:04:50.601Z,63.43
2018-06-27T11:05:50.483Z,63.46
2018-06-27T11:06:50.471Z,63.37
2018-06-27T11:07:50.454Z,62.88
2018-06-27T11:08:50.451Z,61.53
2018-06-27T11:09:50.436Z,62.40
2018-06-27T11:10:50.420Z,64.24
2018-06-27T11:11:50.410Z,63.85
2018-06-27T11:12:50.402Z,63.76
2018-06-27T11:13:50.388Z,63.43
2018-06-27T11:14:50.385Z,64.53
2018-06-27T11:15:50.367Z,64.92
2018-06-27T11:16:50.357Z,65.17
2018-06-27T11:17:50.355Z,64.31
2018-06-27T11:18:50.333Z,65.14
2018-06-27T11:19:50.323Z,65.14
2018-06-27T11:20:50.319Z,63.79
2018-06-27T11:21:50.295Z,63.02
2018-06-27T11:22:50.293Z,64.47
2018-06-27T11:23:50.271Z,64.18
2018-06-27T11:24:50.265Z,65.24
2018-06-27T11:25:50.249Z,64.37
2018-06-27T11:26:50.307Z,63.02
2018-06-27T11:27:50.233Z,63.02
2018-06-27T11:28:50.212Z,62.73
2018-06-27T11:29:50.216Z,61.95
2018-06-27T11:30:50.192Z,62.37
2018-06-27T11:31:50.186Z,62.95
2018-06-27T11:32:50.266Z,63.53
2018-06-27T11:33:50.156Z,62.27
2018-06-27T11:34:50.148Z,62.01
2018-06-27T11:35:50.133Z,61.05
2018-06-27T11:36:50.171Z,60.27
2018-06-27T11:37:50.109Z,60.27
2018-06-27T11:38:50.206Z,59.59
2018-06-27T11:39:50.098Z,57.30
2018-06-27T11:40:50.082Z,57.50
2018-06-27T11:41:50.060Z,57.69
2018-06-27T11:42:50.057Z,57.86
2018-06-27T11:43:50.037Z,58.72
2018-06-27T11:44:50.031Z,58.92
2018-06-27T11:45:50.012Z,59.79
2018-06-27T11:46:50.019Z,58.82
2018-06-27T11:47:49.996Z,57.28
2018-06-27T11:48:49.977Z,56.11
2018-06-27T11:49:50.073Z,56.82
2018-06-27T11:50:49.953Z,57.20
2018-06-27T11:51:49.956Z,57.01
2018-06-27T11:52:49.932Z,56.92
2018-06-27T11:53:49.931Z,56.14
2018-06-27T11:54:49.907Z,56.56
2018-06-27T11:55:49.894Z,55.49
2018-06-27T11:56:49.882Z,54.71
2018-06-27T11:57:49.875Z,54.33
2018-06-27T11:58:49.862Z,54.71
2018-06-27T11:59:49.855Z,54.13
2018-06-27T12:00:49.894Z,54.43
2018-06-27T12:01:49.835Z,53.17
2018-06-27T12:02:49.820Z,54.11
2018-06-27T12:03:49.807Z,54.52
2018-06-27T12:04:49.796Z,53.81
2018-06-27T12:05:49.783Z,54.52
2018-06-27T12:06:49.776Z,54.13
2018-06-27T12:07:49.759Z,53.09
2018-06-27T12:08:49.751Z,53.00
2018-06-27T12:09:49.742Z,54.35
2018-06-27T12:10:49.725Z,53.22
2018-06-27T12:11:49.719Z,52.97
2018-06-27T12:12:49.704Z,54.35
2018-06-27T12:13:49.767Z,53.19
2018-06-27T12:14:49.693Z,52.87
2018-06-27T12:15:49.673Z,52.97
2018-06-27T12:16:49.687Z,52.97
2018-06-27T12:17:49.652Z,53.53
2018-06-27T12:18:49.640Z,55.46
2018-06-27T12:19:49.624Z,56.02
2018-06-27T12:20:49.616Z,56.92
2018-06-27T12:21:49.601Z,56.14
2018-06-27T12:22:49.591Z,55.85
2018-06-27T12:23:49.627Z,55.56
2018-06-27T12:24:49.567Z,55.49
2018-06-27T12:25:49.561Z,54.79
2018-06-27T12:26:49.546Z,55.98
2018-06-27T12:27:49.535Z,56.14
2018-06-27T12:28:49.528Z,55.94
2018-06-27T12:29:49.514Z,56.11
2018-06-27T12:30:49.501Z,56.57
2018-06-27T12:31:49.494Z,56.57
2018-06-27T12:32:49.528Z,56.88
2018-06-27T12:33:49.472Z,56.11
2018-06-27T12:34:49.465Z,55.94
2018-06-27T12:35:49.448Z,56.14
2018-06-27T12:36:49.434Z,54.62
2018-06-27T12:37:49.420Z,54.13
2018-06-27T12:38:49.411Z,54.91
2018-06-27T12:39:49.401Z,52.39
2018-06-27T12:40:49.386Z,53.17
2018-06-27T12:41:49.379Z,52.97
2018-06-27T12:42:49.369Z,53.17
2018-06-27T12:43:49.355Z,51.81
2018-06-27T12:44:49.342Z,52.58
2018-06-27T12:45:49.328Z,52.32
2018-06-27T12:46:49.319Z,50.74
2018-06-27T12:47:49.305Z,51.50
2018-06-27T12:48:49.298Z,52.17
2018-06-27T12:49:49.356Z,52.27
2018-06-27T12:50:49.273Z,52.66
2018-06-27T12:51:49.265Z,52.08